sensor_id;sensor_type;location;lat;lon;timestamp;pressure;altitude;pressure_sealevel;temperature;humidity
62418;BME280;48456;54.242;10.280;2023-04-07T00:01:45;101758.25;;;2.42;100.00
62418;BME280;48456;54.242;10.280;2023-04-07T00:04:11;101763.38;;;2.39;100.00
62418;BME280;48456;54.242;10.280;2023-04-07T00:06:38;101767.47;;;2.34;100.00
62418;BME280;48456;54.242;10.280;2023-04-07T00:09:05;101769.81;;;2.28;100.00
62418;BME280;48456;54.242;10.280;2023-04-07T00:11:32;101765.28;;;2.24;100.00
62418;BME280;48456;54.242;10.280;2023-04-07T00:13:58;101774.00;;;2.24;100.00
62418;BME280;48456;54.242;10.280;2023-04-07T00:16:24;101772.09;;;2.20;100.00
62418;BME280;48456;54.242;10.280;2023-04-07T00:18:51;101768.06;;;2.08;100.00
62418;BME280;48456;54.242;10.280;2023-04-07T00:21:17;101767.94;;;2.05;100.00
62418;BME280;48456;54.242;10.280;2023-04-07T00:23:44;101766.22;;;2.06;100.00
62418;BME280;48456;54.242;10.280;2023-04-07T00:26:12;101775.00;;;2.08;100.00
62418;BME280;48456;54.242;10.280;2023-04-07T00:28:38;101764.78;;;2.13;100.00
62418;BME280;48456;54.242;10.280;2023-04-07T00:31:04;101768.31;;;2.13;100.00
62418;BME280;48456;54.242;10.280;2023-04-07T00:33:31;101768.16;;;2.10;100.00
62418;BME280;48456;54.242;10.280;2023-04-07T00:35:57;101766.63;;;2.15;100.00
62418;BME280;48456;54.242;10.280;2023-04-07T00:38:23;101759.50;;;2.11;100.00
62418;BME280;48456;54.242;10.280;2023-04-07T00:40:55;101761.41;;;2.15;100.00
62418;BME280;48456;54.242;10.280;2023-04-07T00:43:22;101763.81;;;2.11;100.00
62418;BME280;48456;54.242;10.280;2023-04-07T00:45:48;101769.78;;;2.08;100.00
62418;BME280;48456;54.242;10.280;2023-04-07T00:48:15;101765.25;;;2.04;100.00
62418;BME280;48456;54.242;10.280;2023-04-07T00:50:41;101769.59;;;2.03;100.00
62418;BME280;48456;54.242;10.280;2023-04-07T00:53:07;101764.56;;;2.08;100.00
62418;BME280;48456;54.242;10.280;2023-04-07T00:55:34;101768.97;;;2.09;100.00
62418;BME280;48456;54.242;10.280;2023-04-07T00:58:00;101768.16;;;2.10;100.00
62418;BME280;48456;54.242;10.280;2023-04-07T01:00:27;101763.88;;;2.12;100.00
62418;BME280;48456;54.242;10.280;2023-04-07T01:02:57;101766.63;;;2.15;100.00
62418;BME280;48456;54.242;10.280;2023-04-07T01:05:36;101761.56;;;2.18;100.00
62418;BME280;48456;54.242;10.280;2023-04-07T01:15:44;101761.19;;;1.91;100.00
62418;BME280;48456;54.242;10.280;2023-04-07T01:18:16;101762.69;;;1.86;100.00
62418;BME280;48456;54.242;10.280;2023-04-07T01:20:45;101760.88;;;1.85;100.00
62418;BME280;48456;54.242;10.280;2023-04-07T01:23:38;101767.94;;;1.87;100.00
62418;BME280;48456;54.242;10.280;2023-04-07T01:28:48;101770.88;;;1.93;100.00
62418;BME280;48456;54.242;10.280;2023-04-07T01:31:20;101766.41;;;1.91;100.00
62418;BME280;48456;54.242;10.280;2023-04-07T01:33:48;101764.00;;;1.95;100.00
62418;BME280;48456;54.242;10.280;2023-04-07T01:36:15;101768.50;;;1.98;100.00
62418;BME280;48456;54.242;10.280;2023-04-07T01:38:42;101778.97;;;2.00;100.00
62418;BME280;48456;54.242;10.280;2023-04-07T01:41:09;101776.38;;;2.00;100.00
62418;BME280;48456;54.242;10.280;2023-04-07T01:43:36;101767.78;;;2.02;100.00
62418;BME280;48456;54.242;10.280;2023-04-07T01:46:03;101765.88;;;1.98;100.00
62418;BME280;48456;54.242;10.280;2023-04-07T01:48:30;101763.38;;;2.01;100.00
62418;BME280;48456;54.242;10.280;2023-04-07T01:50:57;101772.19;;;2.03;100.00
62418;BME280;48456;54.242;10.280;2023-04-07T01:53:24;101774.50;;;1.97;100.00
62418;BME280;48456;54.242;10.280;2023-04-07T01:55:51;101778.94;;;1.98;100.00
62418;BME280;48456;54.242;10.280;2023-04-07T01:58:18;101772.72;;;1.96;100.00
62418;BME280;48456;54.242;10.280;2023-04-07T02:00:45;101767.16;;;1.88;100.00
62418;BME280;48456;54.242;10.280;2023-04-07T02:03:12;101768.63;;;1.83;100.00
62418;BME280;48456;54.242;10.280;2023-04-07T02:05:46;101767.44;;;1.76;100.00
62418;BME280;48456;54.242;10.280;2023-04-07T02:08:15;101762.19;;;1.75;100.00
62418;BME280;48456;54.242;10.280;2023-04-07T02:10:43;101772.38;;;1.70;100.00
62418;BME280;48456;54.242;10.280;2023-04-07T02:13:12;101775.59;;;1.64;100.00
62418;BME280;48456;54.242;10.280;2023-04-07T02:15:40;101772.03;;;1.62;100.00
62418;BME280;48456;54.242;10.280;2023-04-07T02:18:07;101766.66;;;1.59;100.00
62418;BME280;48456;54.242;10.280;2023-04-07T02:20:35;101766.34;;;1.53;100.00
62418;BME280;48456;54.242;10.280;2023-04-07T02:23:02;101771.34;;;1.48;100.00
62418;BME280;48456;54.242;10.280;2023-04-07T02:25:30;101780.00;;;1.47;100.00
62418;BME280;48456;54.242;10.280;2023-04-07T02:27:57;101777.81;;;1.38;100.00
62418;BME280;48456;54.242;10.280;2023-04-07T02:30:24;101774.22;;;1.36;100.00
62418;BME280;48456;54.242;10.280;2023-04-07T02:32:51;101779.16;;;1.30;100.00
62418;BME280;48456;54.242;10.280;2023-04-07T02:35:18;101775.66;;;1.29;100.00
62418;BME280;48456;54.242;10.280;2023-04-07T02:37:45;101773.78;;;1.27;100.00
62418;BME280;48456;54.242;10.280;2023-04-07T02:40:12;101789.97;;;1.20;100.00
62418;BME280;48456;54.242;10.280;2023-04-07T02:42:38;101796.53;;;1.13;100.00
62418;BME280;48456;54.242;10.280;2023-04-07T02:45:05;101792.72;;;1.06;100.00
62418;BME280;48456;54.242;10.280;2023-04-07T02:47:32;101798.38;;;0.97;100.00
62418;BME280;48456;54.242;10.280;2023-04-07T02:49:59;101791.97;;;0.90;100.00
62418;BME280;48456;54.242;10.280;2023-04-07T02:52:25;101790.09;;;0.88;100.00
62418;BME280;48456;54.242;10.280;2023-04-07T02:54:52;101789.84;;;0.83;100.00
62418;BME280;48456;54.242;10.280;2023-04-07T02:57:18;101793.13;;;0.79;100.00
62418;BME280;48456;54.242;10.280;2023-04-07T02:59:44;101792.28;;;0.80;100.00
62418;BME280;48456;54.242;10.280;2023-04-07T03:02:11;101806.31;;;0.82;100.00
62418;BME280;48456;54.242;10.280;2023-04-07T03:04:37;101787.41;;;0.86;100.00
62418;BME280;48456;54.242;10.280;2023-04-07T03:07:04;101793.59;;;0.88;100.00
62418;BME280;48456;54.242;10.280;2023-04-07T03:09:30;101795.38;;;0.89;100.00
62418;BME280;48456;54.242;10.280;2023-04-07T03:11:57;101797.97;;;0.89;100.00
62418;BME280;48456;54.242;10.280;2023-04-07T03:14:23;101799.63;;;0.87;100.00
62418;BME280;48456;54.242;10.280;2023-04-07T03:16:49;101811.44;;;0.81;100.00
62418;BME280;48456;54.242;10.280;2023-04-07T03:19:16;101805.19;;;0.77;100.00
62418;BME280;48456;54.242;10.280;2023-04-07T03:21:42;101806.63;;;0.72;100.00
62418;BME280;48456;54.242;10.280;2023-04-07T03:24:09;101806.50;;;0.69;100.00
62418;BME280;48456;54.242;10.280;2023-04-07T03:26:35;101804.44;;;0.63;100.00
62418;BME280;48456;54.242;10.280;2023-04-07T03:29:02;101806.88;;;0.60;100.00
62418;BME280;48456;54.242;10.280;2023-04-07T03:31:29;101804.84;;;0.54;100.00
62418;BME280;48456;54.242;10.280;2023-04-07T03:33:55;101801.09;;;0.49;100.00
62418;BME280;48456;54.242;10.280;2023-04-07T03:36:22;101804.53;;;0.48;100.00
62418;BME280;48456;54.242;10.280;2023-04-07T03:38:49;101805.50;;;0.50;100.00
62418;BME280;48456;54.242;10.280;2023-04-07T03:41:15;101806.31;;;0.49;100.00
62418;BME280;48456;54.242;10.280;2023-04-07T03:43:42;101805.41;;;0.48;100.00
62418;BME280;48456;54.242;10.280;2023-04-07T03:46:08;101799.25;;;0.46;100.00
62418;BME280;48456;54.242;10.280;2023-04-07T03:48:35;101807.69;;;0.42;100.00
62418;BME280;48456;54.242;10.280;2023-04-07T03:51:01;101806.38;;;0.34;100.00
62418;BME280;48456;54.242;10.280;2023-04-07T03:53:27;101805.34;;;0.30;100.00
62418;BME280;48456;54.242;10.280;2023-04-07T03:55:54;101801.75;;;0.28;100.00
62418;BME280;48456;54.242;10.280;2023-04-07T03:58:20;101811.09;;;0.24;100.00
62418;BME280;48456;54.242;10.280;2023-04-07T04:00:46;101815.81;;;0.32;100.00
62418;BME280;48456;54.242;10.280;2023-04-07T04:03:13;101816.44;;;0.28;100.00
62418;BME280;48456;54.242;10.280;2023-04-07T04:05:39;101822.56;;;0.28;100.00
62418;BME280;48456;54.242;10.280;2023-04-07T04:08:06;101824.25;;;0.28;100.00
62418;BME280;48456;54.242;10.280;2023-04-07T04:10:32;101825.34;;;0.31;100.00
62418;BME280;48456;54.242;10.280;2023-04-07T04:12:58;101829.00;;;0.35;100.00
62418;BME280;48456;54.242;10.280;2023-04-07T04:15:26;101827.31;;;0.35;100.00
62418;BME280;48456;54.242;10.280;2023-04-07T04:17:52;101832.75;;;0.40;100.00
62418;BME280;48456;54.242;10.280;2023-04-07T04:20:19;101830.13;;;0.40;100.00
62418;BME280;48456;54.242;10.280;2023-04-07T04:22:47;101833.56;;;0.39;100.00
62418;BME280;48456;54.242;10.280;2023-04-07T04:25:14;101845.09;;;0.44;100.00
62418;BME280;48456;54.242;10.280;2023-04-07T04:27:41;101843.59;;;0.48;100.00
62418;BME280;48456;54.242;10.280;2023-04-07T04:30:07;101846.03;;;0.45;100.00
62418;BME280;48456;54.242;10.280;2023-04-07T04:32:34;101852.03;;;0.44;100.00
62418;BME280;48456;54.242;10.280;2023-04-07T04:35:01;101849.00;;;0.36;100.00
62418;BME280;48456;54.242;10.280;2023-04-07T04:37:27;101847.78;;;0.29;100.00
62418;BME280;48456;54.242;10.280;2023-04-07T04:39:53;101847.63;;;0.26;100.00
62418;BME280;48456;54.242;10.280;2023-04-07T04:42:20;101854.25;;;0.21;100.00
62418;BME280;48456;54.242;10.280;2023-04-07T04:44:46;101854.91;;;0.17;100.00
62418;BME280;48456;54.242;10.280;2023-04-07T04:47:12;101859.16;;;0.15;100.00
62418;BME280;48456;54.242;10.280;2023-04-07T04:49:39;101863.44;;;0.14;100.00
62418;BME280;48456;54.242;10.280;2023-04-07T04:52:06;101867.91;;;0.17;100.00
62418;BME280;48456;54.242;10.280;2023-04-07T04:54:33;101870.38;;;0.14;100.00
62418;BME280;48456;54.242;10.280;2023-04-07T04:56:59;101874.41;;;0.08;100.00
62418;BME280;48456;54.242;10.280;2023-04-07T04:59:26;101866.53;;;0.07;100.00
62418;BME280;48456;54.242;10.280;2023-04-07T05:01:53;101879.69;;;0.10;100.00
62418;BME280;48456;54.242;10.280;2023-04-07T05:04:19;101869.47;;;0.13;100.00
62418;BME280;48456;54.242;10.280;2023-04-07T05:06:46;101875.91;;;0.20;100.00
62418;BME280;48456;54.242;10.280;2023-04-07T05:09:13;101874.31;;;0.22;100.00
62418;BME280;48456;54.242;10.280;2023-04-07T05:11:39;101882.09;;;0.22;100.00
62418;BME280;48456;54.242;10.280;2023-04-07T05:14:06;101880.28;;;0.21;100.00
62418;BME280;48456;54.242;10.280;2023-04-07T05:16:32;101887.31;;;0.22;100.00
62418;BME280;48456;54.242;10.280;2023-04-07T05:18:58;101893.09;;;0.33;100.00
62418;BME280;48456;54.242;10.280;2023-04-07T05:21:25;101897.91;;;0.42;100.00
62418;BME280;48456;54.242;10.280;2023-04-07T05:23:52;101897.72;;;0.54;100.00
62418;BME280;48456;54.242;10.280;2023-04-07T05:26:19;101902.28;;;0.58;100.00
62418;BME280;48456;54.242;10.280;2023-04-07T05:28:46;101899.91;;;0.62;100.00
62418;BME280;48456;54.242;10.280;2023-04-07T05:31:13;101902.91;;;0.70;100.00
62418;BME280;48456;54.242;10.280;2023-04-07T05:33:39;101895.63;;;0.80;100.00
62418;BME280;48456;54.242;10.280;2023-04-07T05:36:06;101903.09;;;0.90;100.00
62418;BME280;48456;54.242;10.280;2023-04-07T05:38:32;101903.66;;;1.01;100.00
62418;BME280;48456;54.242;10.280;2023-04-07T05:40:59;101901.41;;;1.07;100.00
62418;BME280;48456;54.242;10.280;2023-04-07T05:43:25;101905.31;;;1.15;100.00
62418;BME280;48456;54.242;10.280;2023-04-07T05:45:51;101898.81;;;1.25;100.00
62418;BME280;48456;54.242;10.280;2023-04-07T05:48:18;101906.31;;;1.36;100.00
62418;BME280;48456;54.242;10.280;2023-04-07T05:50:44;101912.91;;;1.46;100.00
62418;BME280;48456;54.242;10.280;2023-04-07T05:53:10;101905.63;;;1.57;100.00
62418;BME280;48456;54.242;10.280;2023-04-07T05:55:37;101923.59;;;1.68;100.00
62418;BME280;48456;54.242;10.280;2023-04-07T05:58:03;101919.91;;;1.81;100.00
62418;BME280;48456;54.242;10.280;2023-04-07T06:00:30;101921.25;;;1.91;100.00
62418;BME280;48456;54.242;10.280;2023-04-07T06:02:56;101925.59;;;2.09;100.00
62418;BME280;48456;54.242;10.280;2023-04-07T06:05:23;101924.31;;;2.19;100.00
62418;BME280;48456;54.242;10.280;2023-04-07T06:07:49;101931.03;;;2.32;100.00
62418;BME280;48456;54.242;10.280;2023-04-07T06:10:16;101935.19;;;2.46;100.00
62418;BME280;48456;54.242;10.280;2023-04-07T06:12:42;101942.81;;;2.60;100.00
62418;BME280;48456;54.242;10.280;2023-04-07T06:15:08;101946.78;;;2.71;100.00
62418;BME280;48456;54.242;10.280;2023-04-07T06:17:35;101943.91;;;2.85;100.00
62418;BME280;48456;54.242;10.280;2023-04-07T06:20:01;101949.69;;;2.97;100.00
62418;BME280;48456;54.242;10.280;2023-04-07T06:22:28;101949.31;;;3.08;100.00
62418;BME280;48456;54.242;10.280;2023-04-07T06:24:54;101946.19;;;3.17;100.00
62418;BME280;48456;54.242;10.280;2023-04-07T06:27:21;101953.66;;;3.27;100.00
62418;BME280;48456;54.242;10.280;2023-04-07T06:29:47;101958.25;;;3.33;100.00
62418;BME280;48456;54.242;10.280;2023-04-07T06:32:14;101951.66;;;3.41;100.00
62418;BME280;48456;54.242;10.280;2023-04-07T06:34:40;101964.28;;;3.51;100.00
62418;BME280;48456;54.242;10.280;2023-04-07T06:37:06;101952.28;;;3.57;100.00
62418;BME280;48456;54.242;10.280;2023-04-07T06:39:33;101964.06;;;3.67;100.00
62418;BME280;48456;54.242;10.280;2023-04-07T06:42:00;101960.13;;;3.76;100.00
62418;BME280;48456;54.242;10.280;2023-04-07T06:44:26;101967.50;;;3.87;100.00
62418;BME280;48456;54.242;10.280;2023-04-07T06:46:53;101973.88;;;3.92;100.00
62418;BME280;48456;54.242;10.280;2023-04-07T06:49:20;101967.66;;;4.11;100.00
62418;BME280;48456;54.242;10.280;2023-04-07T06:51:47;101971.28;;;4.15;100.00
62418;BME280;48456;54.242;10.280;2023-04-07T06:54:13;101969.81;;;4.22;100.00
62418;BME280;48456;54.242;10.280;2023-04-07T06:56:40;101965.91;;;4.33;100.00
62418;BME280;48456;54.242;10.280;2023-04-07T06:59:07;101976.94;;;4.47;100.00
62418;BME280;48456;54.242;10.280;2023-04-07T07:01:34;101975.41;;;4.52;100.00
62418;BME280;48456;54.242;10.280;2023-04-07T07:04:00;101977.53;;;4.63;100.00
62418;BME280;48456;54.242;10.280;2023-04-07T07:06:27;101983.03;;;4.69;100.00
62418;BME280;48456;54.242;10.280;2023-04-07T07:08:53;101988.78;;;4.81;100.00
62418;BME280;48456;54.242;10.280;2023-04-07T07:11:20;101983.75;;;4.88;100.00
62418;BME280;48456;54.242;10.280;2023-04-07T07:13:46;101996.47;;;5.01;100.00
62418;BME280;48456;54.242;10.280;2023-04-07T07:16:15;101995.88;;;5.09;100.00
62418;BME280;48456;54.242;10.280;2023-04-07T07:18:41;101995.28;;;5.16;100.00
62418;BME280;48456;54.242;10.280;2023-04-07T07:21:07;101993.13;;;5.28;100.00
62418;BME280;48456;54.242;10.280;2023-04-07T07:23:34;101992.34;;;5.31;100.00
62418;BME280;48456;54.242;10.280;2023-04-07T07:26:00;102001.34;;;5.38;100.00
62418;BME280;48456;54.242;10.280;2023-04-07T07:28:26;101999.59;;;5.38;100.00
62418;BME280;48456;54.242;10.280;2023-04-07T07:30:54;102006.78;;;5.44;100.00
62418;BME280;48456;54.242;10.280;2023-04-07T07:33:21;102000.59;;;5.42;100.00
62418;BME280;48456;54.242;10.280;2023-04-07T07:35:48;102001.88;;;5.53;100.00
62418;BME280;48456;54.242;10.280;2023-04-07T07:38:14;102002.41;;;5.69;100.00
62418;BME280;48456;54.242;10.280;2023-04-07T07:40:40;102006.28;;;5.79;100.00
62418;BME280;48456;54.242;10.280;2023-04-07T07:43:07;102003.16;;;5.91;100.00
62418;BME280;48456;54.242;10.280;2023-04-07T07:45:33;102014.88;;;6.01;100.00
62418;BME280;48456;54.242;10.280;2023-04-07T07:48:00;102009.88;;;6.07;100.00
62418;BME280;48456;54.242;10.280;2023-04-07T07:50:26;102011.81;;;6.13;100.00
62418;BME280;48456;54.242;10.280;2023-04-07T07:52:53;102013.19;;;6.27;100.00
62418;BME280;48456;54.242;10.280;2023-04-07T07:55:19;102018.00;;;6.41;100.00
62418;BME280;48456;54.242;10.280;2023-04-07T07:57:46;102018.13;;;6.45;100.00
62418;BME280;48456;54.242;10.280;2023-04-07T08:00:12;102019.72;;;6.40;100.00
62418;BME280;48456;54.242;10.280;2023-04-07T08:02:39;102023.66;;;6.53;100.00
62418;BME280;48456;54.242;10.280;2023-04-07T08:05:05;102028.72;;;6.76;100.00
62418;BME280;48456;54.242;10.280;2023-04-07T08:07:32;102031.75;;;6.88;100.00
62418;BME280;48456;54.242;10.280;2023-04-07T08:09:58;102036.41;;;6.97;100.00
62418;BME280;48456;54.242;10.280;2023-04-07T08:12:25;102039.16;;;7.02;100.00
62418;BME280;48456;54.242;10.280;2023-04-07T08:14:51;102037.53;;;7.06;100.00
62418;BME280;48456;54.242;10.280;2023-04-07T08:17:18;102035.72;;;7.05;100.00
62418;BME280;48456;54.242;10.280;2023-04-07T08:19:44;102046.84;;;6.94;100.00
62418;BME280;48456;54.242;10.280;2023-04-07T08:22:11;102036.63;;;7.05;100.00
62418;BME280;48456;54.242;10.280;2023-04-07T08:24:37;102038.78;;;7.19;100.00
62418;BME280;48456;54.242;10.280;2023-04-07T08:27:04;102047.31;;;7.10;100.00
62418;BME280;48456;54.242;10.280;2023-04-07T08:29:31;102039.47;;;7.13;100.00
62418;BME280;48456;54.242;10.280;2023-04-07T08:31:57;102036.94;;;7.16;100.00
62418;BME280;48456;54.242;10.280;2023-04-07T08:34:24;102039.63;;;7.18;100.00
62418;BME280;48456;54.242;10.280;2023-04-07T08:36:50;102036.34;;;7.25;100.00
62418;BME280;48456;54.242;10.280;2023-04-07T08:39:16;102042.31;;;7.19;100.00
62418;BME280;48456;54.242;10.280;2023-04-07T08:41:43;102049.22;;;7.15;100.00
62418;BME280;48456;54.242;10.280;2023-04-07T08:44:10;102049.19;;;7.14;100.00
62418;BME280;48456;54.242;10.280;2023-04-07T08:46:38;102052.91;;;7.21;100.00
62418;BME280;48456;54.242;10.280;2023-04-07T08:49:08;102045.56;;;7.41;100.00
62418;BME280;48456;54.242;10.280;2023-04-07T08:51:48;102049.31;;;7.49;100.00
62418;BME280;48456;54.242;10.280;2023-04-07T08:54:16;102053.31;;;7.67;100.00
62418;BME280;48456;54.242;10.280;2023-04-07T08:56:47;102054.94;;;7.62;100.00
62418;BME280;48456;54.242;10.280;2023-04-07T08:59:14;102046.13;;;7.61;100.00
62418;BME280;48456;54.242;10.280;2023-04-07T09:01:43;102046.19;;;7.63;100.00
62418;BME280;48456;54.242;10.280;2023-04-07T09:04:11;102047.09;;;7.63;100.00
62418;BME280;48456;54.242;10.280;2023-04-07T09:06:37;102050.06;;;7.76;100.00
62418;BME280;48456;54.242;10.280;2023-04-07T09:09:04;102041.53;;;7.86;100.00
62418;BME280;48456;54.242;10.280;2023-04-07T09:11:38;102043.59;;;7.98;100.00
62418;BME280;48456;54.242;10.280;2023-04-07T09:14:05;102044.41;;;7.96;100.00
62418;BME280;48456;54.242;10.280;2023-04-07T09:16:31;102050.69;;;7.99;100.00
62418;BME280;48456;54.242;10.280;2023-04-07T09:18:58;102046.22;;;7.97;100.00
62418;BME280;48456;54.242;10.280;2023-04-07T09:21:24;102042.78;;;8.01;100.00
62418;BME280;48456;54.242;10.280;2023-04-07T09:23:52;102048.88;;;7.97;100.00
62418;BME280;48456;54.242;10.280;2023-04-07T09:28:48;102047.16;;;7.99;100.00
62418;BME280;48456;54.242;10.280;2023-04-07T09:31:15;102041.97;;;8.02;100.00
62418;BME280;48456;54.242;10.280;2023-04-07T09:33:42;102044.91;;;8.14;100.00
62418;BME280;48456;54.242;10.280;2023-04-07T09:36:08;102044.06;;;8.15;100.00
62418;BME280;48456;54.242;10.280;2023-04-07T09:38:37;102047.97;;;8.31;100.00
62418;BME280;48456;54.242;10.280;2023-04-07T09:41:04;102047.16;;;8.34;100.00
62418;BME280;48456;54.242;10.280;2023-04-07T09:43:34;102039.97;;;8.27;100.00
62418;BME280;48456;54.242;10.280;2023-04-07T09:46:07;102048.38;;;8.13;100.00
62418;BME280;48456;54.242;10.280;2023-04-07T09:48:34;102043.34;;;8.21;100.00
62418;BME280;48456;54.242;10.280;2023-04-07T09:51:04;102034.75;;;8.30;100.00
62418;BME280;48456;54.242;10.280;2023-04-07T09:56:29;102029.78;;;8.42;100.00
62418;BME280;48456;54.242;10.280;2023-04-07T09:58:56;102030.50;;;8.35;100.00
62418;BME280;48456;54.242;10.280;2023-04-07T10:01:22;102031.50;;;8.40;100.00
62418;BME280;48456;54.242;10.280;2023-04-07T10:03:49;102030.94;;;8.17;100.00
62418;BME280;48456;54.242;10.280;2023-04-07T10:06:17;102042.44;;;8.21;100.00
62418;BME280;48456;54.242;10.280;2023-04-07T10:08:44;102040.22;;;8.38;100.00
62418;BME280;48456;54.242;10.280;2023-04-07T10:11:11;102033.06;;;8.32;100.00
62418;BME280;48456;54.242;10.280;2023-04-07T10:13:38;102028.78;;;8.37;100.00
62418;BME280;48456;54.242;10.280;2023-04-07T10:16:06;102034.28;;;8.47;100.00
62418;BME280;48456;54.242;10.280;2023-04-07T10:18:33;102033.91;;;8.66;100.00
62418;BME280;48456;54.242;10.280;2023-04-07T10:21:01;102036.03;;;8.83;100.00
62418;BME280;48456;54.242;10.280;2023-04-07T10:25:55;102033.09;;;9.09;100.00
62418;BME280;48456;54.242;10.280;2023-04-07T10:28:23;102038.13;;;8.98;100.00
62418;BME280;48456;54.242;10.280;2023-04-07T10:30:51;102040.69;;;8.95;100.00
62418;BME280;48456;54.242;10.280;2023-04-07T10:33:21;102046.63;;;8.84;100.00
62418;BME280;48456;54.242;10.280;2023-04-07T10:36:05;102048.75;;;8.61;100.00
62418;BME280;48456;54.242;10.280;2023-04-07T10:38:32;102039.56;;;8.47;100.00
62418;BME280;48456;54.242;10.280;2023-04-07T10:40:58;102036.84;;;8.79;100.00
62418;BME280;48456;54.242;10.280;2023-04-07T10:43:38;102046.13;;;9.03;100.00
62418;BME280;48456;54.242;10.280;2023-04-07T10:46:10;102035.28;;;9.29;100.00
62418;BME280;48456;54.242;10.280;2023-04-07T10:48:36;102039.66;;;9.28;100.00
62418;BME280;48456;54.242;10.280;2023-04-07T10:53:33;102048.00;;;9.07;100.00
62418;BME280;48456;54.242;10.280;2023-04-07T10:56:00;102036.69;;;9.13;100.00
62418;BME280;48456;54.242;10.280;2023-04-07T10:58:27;102040.41;;;9.22;100.00
62418;BME280;48456;54.242;10.280;2023-04-07T11:03:27;102039.69;;;9.74;100.00
62418;BME280;48456;54.242;10.280;2023-04-07T11:08:32;102035.25;;;10.77;100.00
62418;BME280;48456;54.242;10.280;2023-04-07T11:10:59;102039.22;;;11.09;100.00
62418;BME280;48456;54.242;10.280;2023-04-07T11:13:25;102047.53;;;11.38;100.00
62418;BME280;48456;54.242;10.280;2023-04-07T11:15:52;102046.66;;;12.20;100.00
62418;BME280;48456;54.242;10.280;2023-04-07T11:18:20;102040.63;;;12.37;100.00
62418;BME280;48456;54.242;10.280;2023-04-07T11:23:13;102045.59;;;13.25;100.00
62418;BME280;48456;54.242;10.280;2023-04-07T11:25:41;102042.00;;;13.12;100.00
62418;BME280;48456;54.242;10.280;2023-04-07T11:28:08;102046.56;;;13.43;100.00
62418;BME280;48456;54.242;10.280;2023-04-07T11:30:35;102055.63;;;14.09;100.00
62418;BME280;48456;54.242;10.280;2023-04-07T11:33:01;102052.97;;;14.21;89.45
62418;BME280;48456;54.242;10.280;2023-04-07T11:35:28;102055.59;;;14.02;82.89
62418;BME280;48456;54.242;10.280;2023-04-07T11:37:57;102055.53;;;13.70;80.71
62418;BME280;48456;54.242;10.280;2023-04-07T11:40:34;102061.72;;;13.62;85.92
62418;BME280;48456;54.242;10.280;2023-04-07T11:43:02;102059.97;;;13.68;84.48
62418;BME280;48456;54.242;10.280;2023-04-07T11:45:40;102052.91;;;13.90;83.59
62418;BME280;48456;54.242;10.280;2023-04-07T11:50:51;102050.31;;;14.29;77.63
62418;BME280;48456;54.242;10.280;2023-04-07T11:56:03;102060.97;;;14.32;81.12
62418;BME280;48456;54.242;10.280;2023-04-07T11:58:31;102058.25;;;14.59;74.82
62418;BME280;48456;54.242;10.280;2023-04-07T12:00:58;102061.84;;;14.64;82.03
62418;BME280;48456;54.242;10.280;2023-04-07T12:03:28;102056.50;;;14.45;73.90
62418;BME280;48456;54.242;10.280;2023-04-07T12:05:55;102061.84;;;14.19;79.29
62418;BME280;48456;54.242;10.280;2023-04-07T12:08:29;102067.16;;;14.15;80.39
62418;BME280;48456;54.242;10.280;2023-04-07T12:11:02;102071.53;;;13.82;72.84
62418;BME280;48456;54.242;10.280;2023-04-07T12:13:29;102078.34;;;13.18;82.29
62418;BME280;48456;54.242;10.280;2023-04-07T12:15:59;102081.59;;;12.70;75.00
62418;BME280;48456;54.242;10.280;2023-04-07T12:18:27;102072.59;;;12.54;90.06
62418;BME280;48456;54.242;10.280;2023-04-07T12:20:53;102078.06;;;12.76;97.60
62418;BME280;48456;54.242;10.280;2023-04-07T12:23:21;102081.25;;;13.75;92.89
62418;BME280;48456;54.242;10.280;2023-04-07T12:25:47;102075.13;;;14.22;85.26
62418;BME280;48456;54.242;10.280;2023-04-07T12:28:13;102074.22;;;14.02;86.30
62418;BME280;48456;54.242;10.280;2023-04-07T12:30:42;102079.56;;;14.16;72.26
62418;BME280;48456;54.242;10.280;2023-04-07T12:33:08;102074.28;;;14.45;79.36
62418;BME280;48456;54.242;10.280;2023-04-07T12:35:35;102069.81;;;14.36;76.61
62418;BME280;48456;54.242;10.280;2023-04-07T12:38:01;102076.91;;;14.49;80.96
62418;BME280;48456;54.242;10.280;2023-04-07T12:40:28;102077.78;;;14.12;90.23
62418;BME280;48456;54.242;10.280;2023-04-07T12:42:54;102074.16;;;13.73;93.27
62418;BME280;48456;54.242;10.280;2023-04-07T12:45:23;102081.34;;;14.13;87.69
62418;BME280;48456;54.242;10.280;2023-04-07T12:47:49;102073.69;;;12.79;97.15
62418;BME280;48456;54.242;10.280;2023-04-07T12:50:16;102083.31;;;11.78;100.00
62418;BME280;48456;54.242;10.280;2023-04-07T12:52:42;102087.22;;;11.32;100.00
62418;BME280;48456;54.242;10.280;2023-04-07T12:55:09;102091.19;;;11.00;100.00
62418;BME280;48456;54.242;10.280;2023-04-07T12:57:36;102089.84;;;11.30;100.00
62418;BME280;48456;54.242;10.280;2023-04-07T13:00:03;102087.16;;;11.29;100.00
62418;BME280;48456;54.242;10.280;2023-04-07T13:02:29;102081.94;;;10.73;100.00
62418;BME280;48456;54.242;10.280;2023-04-07T13:04:56;102094.41;;;9.35;100.00
62418;BME280;48456;54.242;10.280;2023-04-07T13:07:22;102093.66;;;9.01;100.00
62418;BME280;48456;54.242;10.280;2023-04-07T13:09:48;102097.66;;;8.85;100.00
62418;BME280;48456;54.242;10.280;2023-04-07T13:12:15;102097.88;;;8.24;100.00
62418;BME280;48456;54.242;10.280;2023-04-07T13:14:41;102095.06;;;8.17;100.00